Hibiny — HIBINY — position and weather

sailwx.info

Track history (hours):
 
Tides and Currents Weather Stations Pressure Air Temp Water Temp Dewpoint Dewpoint Depression Visibility Wind Speed Wind Dir Waves Ship Positions

Hibiny

Last reported at 2017-Oct-21 13:46 UTC. Time now 2017-Nov-21 06:19 UTC.
Position N 47°48' E 035°10'.
Warning: this ship's position is 30 days out of date.

Length 38 m.

Type: Passenger vessel. MMSI: 272152200.

Date/timePositionNaut miles runAvg speedWind from/ knotsBaromVisibWave heightAir tempDewpointWater temp
2017-Oct-21 13:46N 47°48' E 035°10'0 1.4
2017-Oct-21 13:30N 47°48' E 035°10'2 4.2
2017-Oct-21 13:00N 47°48' E 035°07'4 7.8
2017-Oct-21 12:30N 47°51' E 035°03'2 4.4
2017-Oct-21 12:00N 47°50' E 035°06'3 5.6
2017-Oct-21 11:29N 47°48' E 035°10'2 3.9
2017-Oct-21 11:00N 47°47' E 035°09'4 7.1
2017-Oct-21 10:30N 47°49' E 035°05'3 5.9
2017-Oct-21 10:00N 47°52' E 035°04'3 6.3
2017-Oct-21 09:30N 47°50' E 035°07'2 3.7
2017-Oct-21 08:59N 47°48' E 035°10'  
2017-Oct-16 13:38N 47°48' E 035°10'0 3.2
2017-Oct-16 13:29N 47°48' E 035°10'2 3.9
2017-Oct-16 13:00N 47°47' E 035°08'4 8.1
2017-Oct-16 12:30N 47°50' E 035°04'1 2.9
2017-Oct-16 12:00N 47°51' E 035°05'4 7.4
2017-Oct-16 11:30N 47°48' E 035°10'0 0.0
2017-Oct-15 13:42N 47°48' E 035°10'0 1.9
2017-Oct-15 13:28N 47°48' E 035°10'2 4.0
2017-Oct-15 13:00N 47°47' E 035°07'4 7.9
2017-Oct-15 12:30N 47°50' E 035°03'2 3.0
2017-Oct-15 12:00N 47°51' E 035°05'4 6.9
2017-Oct-15 11:29N 47°48' E 035°10'0 1.0
2017-Oct-15 11:00N 47°48' E 035°10'2 4.9
2017-Oct-15 10:30N 47°48' E 035°06'4 7.4
2017-Oct-15 10:00N 47°52' E 035°04'3 6.2
2017-Oct-15 09:30N 47°50' E 035°07'2 3.4
2017-Oct-15 09:00N 47°49' E 035°09'3 5.5
2017-Oct-15 08:30N 47°50' E 035°06'0 0.0
2017-Oct-15 08:00N 47°50' E 035°06'0 0.0
2017-Oct-15 07:30N 47°50' E 035°06'1 2.2
2017-Oct-15 07:00N 47°50' E 035°07'2 0.1
2017-Oct-14 14:28N 47°48' E 035°10'0 0.9
2017-Oct-14 13:59N 47°48' E 035°10'0 0.9
2017-Oct-14 13:30N 47°48' E 035°10'2 4.2
2017-Oct-14 13:00N 47°48' E 035°06'4 7.7
2017-Oct-14 12:30N 47°51' E 035°03'3 5.6
2017-Oct-14 12:00N 47°50' E 035°07'2 4.5
2017-Oct-14 11:29N 47°48' E 035°10'0 0.2
2017-Oct-14 11:00N 47°48' E 035°10'2 4.1
2017-Oct-14 10:30N 47°48' E 035°07'4 8.0
2017-Oct-14 10:00N 47°51' E 035°03'3 5.2
2017-Oct-14 09:30N 47°50' E 035°07'2 4.7
2017-Oct-14 08:58N 47°48' E 035°10'2 4.1
2017-Oct-14 08:30N 47°47' E 035°08'4 8.7
2017-Oct-14 08:00N 47°50' E 035°03'1 2.9
2017-Oct-14 07:30N 47°50' E 035°05'4 6.7
2017-Oct-14 06:59N 47°48' E 035°10'0 0.7
2017-Oct-14 06:30N 47°48' E 035°10'  
Track history (hours):
 
Tides and Currents Weather Stations Pressure Air Temp Water Temp Dewpoint Dewpoint Depression Visibility Wind Speed Wind Dir Waves Ship Positions

Hibiny

Last reported at 2017-Oct-21 13:46 UTC. Time now 2017-Nov-21 06:19 UTC.
Position N 47°48' E 035°10'.
Warning: this ship's position is 30 days out of date.

Length 38 m.

Type: Passenger vessel. MMSI: 272152200.

Date/timePositionNaut miles runAvg speedWind from/ knotsBaromVisibWave heightAir tempDewpointWater temp
2017-Oct-21 13:46N 47°48' E 035°10'0 1.4
2017-Oct-21 13:30N 47°48' E 035°10'2 4.2
2017-Oct-21 13:00N 47°48' E 035°07'4 7.8
2017-Oct-21 12:30N 47°51' E 035°03'2 4.4
2017-Oct-21 12:00N 47°50' E 035°06'3 5.6
2017-Oct-21 11:29N 47°48' E 035°10'2 3.9
2017-Oct-21 11:00N 47°47' E 035°09'4 7.1
2017-Oct-21 10:30N 47°49' E 035°05'3 5.9
2017-Oct-21 10:00N 47°52' E 035°04'3 6.3
2017-Oct-21 09:30N 47°50' E 035°07'2 3.7
2017-Oct-21 08:59N 47°48' E 035°10'  
2017-Oct-16 13:38N 47°48' E 035°10'0 3.2
2017-Oct-16 13:29N 47°48' E 035°10'2 3.9
2017-Oct-16 13:00N 47°47' E 035°08'4 8.1
2017-Oct-16 12:30N 47°50' E 035°04'1 2.9
2017-Oct-16 12:00N 47°51' E 035°05'4 7.4
2017-Oct-16 11:30N 47°48' E 035°10'0 0.0
2017-Oct-15 13:42N 47°48' E 035°10'0 1.9
2017-Oct-15 13:28N 47°48' E 035°10'2 4.0
2017-Oct-15 13:00N 47°47' E 035°07'4 7.9
2017-Oct-15 12:30N 47°50' E 035°03'2 3.0
2017-Oct-15 12:00N 47°51' E 035°05'4 6.9
2017-Oct-15 11:29N 47°48' E 035°10'0 1.0
2017-Oct-15 11:00N 47°48' E 035°10'2 4.9
2017-Oct-15 10:30N 47°48' E 035°06'4 7.4
2017-Oct-15 10:00N 47°52' E 035°04'3 6.2
2017-Oct-15 09:30N 47°50' E 035°07'2 3.4
2017-Oct-15 09:00N 47°49' E 035°09'3 5.5
2017-Oct-15 08:30N 47°50' E 035°06'0 0.0
2017-Oct-15 08:00N 47°50' E 035°06'0 0.0
2017-Oct-15 07:30N 47°50' E 035°06'1 2.2
2017-Oct-15 07:00N 47°50' E 035°07'2 0.1
2017-Oct-14 14:28N 47°48' E 035°10'0 0.9
2017-Oct-14 13:59N 47°48' E 035°10'0 0.9
2017-Oct-14 13:30N 47°48' E 035°10'2 4.2
2017-Oct-14 13:00N 47°48' E 035°06'4 7.7
2017-Oct-14 12:30N 47°51' E 035°03'3 5.6
2017-Oct-14 12:00N 47°50' E 035°07'2 4.5
2017-Oct-14 11:29N 47°48' E 035°10'0 0.2
2017-Oct-14 11:00N 47°48' E 035°10'2 4.1
2017-Oct-14 10:30N 47°48' E 035°07'4 8.0
2017-Oct-14 10:00N 47°51' E 035°03'3 5.2
2017-Oct-14 09:30N 47°50' E 035°07'2 4.7
2017-Oct-14 08:58N 47°48' E 035°10'2 4.1
2017-Oct-14 08:30N 47°47' E 035°08'4 8.7
2017-Oct-14 08:00N 47°50' E 035°03'1 2.9
2017-Oct-14 07:30N 47°50' E 035°05'4 6.7
2017-Oct-14 06:59N 47°48' E 035°10'0 0.7
2017-Oct-14 06:30N 47°48' E 035°10'  

Dump ship's entire track history